sensor_id;sensor_type;location;lat;lon;timestamp;P1;durP1;ratioP1;P2;durP2;ratioP2
5939;SDS011;2995;-31.998;115.906;2023-07-16T00:01:58;7.18;;;2.75;;
5939;SDS011;2995;-31.998;115.906;2023-07-16T00:04:32;5.07;;;2.50;;
5939;SDS011;2995;-31.998;115.906;2023-07-16T00:07:04;3.15;;;2.35;;
5939;SDS011;2995;-31.998;115.906;2023-07-16T00:09:36;4.65;;;2.35;;
5939;SDS011;2995;-31.998;115.906;2023-07-16T00:12:08;4.63;;;2.45;;
5939;SDS011;2995;-31.998;115.906;2023-07-16T00:14:39;3.20;;;2.70;;
5939;SDS011;2995;-31.998;115.906;2023-07-16T00:17:11;5.40;;;2.90;;
5939;SDS011;2995;-31.998;115.906;2023-07-16T00:19:45;6.25;;;2.25;;
5939;SDS011;2995;-31.998;115.906;2023-07-16T00:22:16;3.35;;;2.40;;
5939;SDS011;2995;-31.998;115.906;2023-07-16T00:24:47;6.75;;;2.67;;
5939;SDS011;2995;-31.998;115.906;2023-07-16T00:27:18;3.58;;;2.22;;
5939;SDS011;2995;-31.998;115.906;2023-07-16T00:29:50;5.55;;;2.10;;
5939;SDS011;2995;-31.998;115.906;2023-07-16T00:32:21;4.95;;;1.95;;
5939;SDS011;2995;-31.998;115.906;2023-07-16T00:34:54;2.78;;;1.77;;
5939;SDS011;2995;-31.998;115.906;2023-07-16T00:37:26;4.05;;;1.80;;
5939;SDS011;2995;-31.998;115.906;2023-07-16T00:39:57;6.68;;;2.47;;
5939;SDS011;2995;-31.998;115.906;2023-07-16T00:42:28;6.10;;;2.20;;
5939;SDS011;2995;-31.998;115.906;2023-07-16T00:45:00;4.05;;;1.90;;
5939;SDS011;2995;-31.998;115.906;2023-07-16T00:47:31;6.28;;;1.60;;
5939;SDS011;2995;-31.998;115.906;2023-07-16T00:50:05;2.95;;;1.90;;
5939;SDS011;2995;-31.998;115.906;2023-07-16T00:52:38;3.20;;;1.70;;
5939;SDS011;2995;-31.998;115.906;2023-07-16T00:55:10;4.32;;;1.80;;
5939;SDS011;2995;-31.998;115.906;2023-07-16T00:57:42;3.67;;;1.80;;
5939;SDS011;2995;-31.998;115.906;2023-07-16T01:00:14;3.35;;;1.70;;
5939;SDS011;2995;-31.998;115.906;2023-07-16T01:02:46;4.88;;;1.60;;
5939;SDS011;2995;-31.998;115.906;2023-07-16T01:05:19;4.77;;;1.90;;
5939;SDS011;2995;-31.998;115.906;2023-07-16T01:07:52;3.63;;;2.80;;
5939;SDS011;2995;-31.998;115.906;2023-07-16T01:10:31;3.97;;;1.40;;
5939;SDS011;2995;-31.998;115.906;2023-07-16T01:13:02;6.23;;;1.90;;
5939;SDS011;2995;-31.998;115.906;2023-07-16T01:15:34;6.73;;;1.90;;
5939;SDS011;2995;-31.998;115.906;2023-07-16T01:18:05;3.03;;;1.60;;
5939;SDS011;2995;-31.998;115.906;2023-07-16T01:20:39;3.93;;;1.30;;
5939;SDS011;2995;-31.998;115.906;2023-07-16T01:23:18;4.10;;;1.70;;
5939;SDS011;2995;-31.998;115.906;2023-07-16T01:26:23;4.80;;;1.50;;
5939;SDS011;2995;-31.998;115.906;2023-07-16T01:32:00;3.53;;;1.40;;
5939;SDS011;2995;-31.998;115.906;2023-07-16T01:34:32;7.57;;;1.50;;
5939;SDS011;2995;-31.998;115.906;2023-07-16T01:37:04;2.67;;;1.10;;
5939;SDS011;2995;-31.998;115.906;2023-07-16T01:39:36;2.50;;;1.37;;
5939;SDS011;2995;-31.998;115.906;2023-07-16T01:42:08;2.67;;;1.20;;
5939;SDS011;2995;-31.998;115.906;2023-07-16T01:44:43;4.40;;;1.30;;
5939;SDS011;2995;-31.998;115.906;2023-07-16T01:47:15;3.17;;;1.50;;
5939;SDS011;2995;-31.998;115.906;2023-07-16T01:49:53;1.30;;;1.10;;
5939;SDS011;2995;-31.998;115.906;2023-07-16T01:52:24;3.30;;;1.50;;
5939;SDS011;2995;-31.998;115.906;2023-07-16T01:54:56;2.40;;;1.77;;
5939;SDS011;2995;-31.998;115.906;2023-07-16T01:57:27;2.80;;;1.50;;
5939;SDS011;2995;-31.998;115.906;2023-07-16T02:00:00;8.70;;;1.70;;
5939;SDS011;2995;-31.998;115.906;2023-07-16T02:02:37;2.70;;;1.13;;
5939;SDS011;2995;-31.998;115.906;2023-07-16T02:05:09;4.50;;;2.17;;
5939;SDS011;2995;-31.998;115.906;2023-07-16T02:07:40;5.63;;;2.43;;
5939;SDS011;2995;-31.998;115.906;2023-07-16T02:10:12;1.90;;;1.47;;
5939;SDS011;2995;-31.998;115.906;2023-07-16T02:12:43;2.57;;;1.00;;
5939;SDS011;2995;-31.998;115.906;2023-07-16T02:15:17;1.50;;;1.10;;
5939;SDS011;2995;-31.998;115.906;2023-07-16T02:17:48;3.93;;;1.10;;
5939;SDS011;2995;-31.998;115.906;2023-07-16T02:20:19;1.43;;;0.90;;
5939;SDS011;2995;-31.998;115.906;2023-07-16T02:22:51;4.57;;;0.97;;
5939;SDS011;2995;-31.998;115.906;2023-07-16T02:25:22;2.00;;;0.80;;
5939;SDS011;2995;-31.998;115.906;2023-07-16T02:27:53;2.90;;;0.90;;
5939;SDS011;2995;-31.998;115.906;2023-07-16T02:30:26;2.80;;;0.93;;
5939;SDS011;2995;-31.998;115.906;2023-07-16T02:32:58;2.13;;;1.00;;
5939;SDS011;2995;-31.998;115.906;2023-07-16T02:35:30;2.33;;;1.00;;
5939;SDS011;2995;-31.998;115.906;2023-07-16T02:38:01;2.20;;;1.30;;
5939;SDS011;2995;-31.998;115.906;2023-07-16T02:40:32;2.47;;;1.30;;
5939;SDS011;2995;-31.998;115.906;2023-07-16T02:43:04;2.27;;;0.93;;
5939;SDS011;2995;-31.998;115.906;2023-07-16T02:45:39;4.20;;;1.40;;
5939;SDS011;2995;-31.998;115.906;2023-07-16T02:48:11;3.87;;;0.90;;
5939;SDS011;2995;-31.998;115.906;2023-07-16T02:50:42;2.43;;;1.03;;
5939;SDS011;2995;-31.998;115.906;2023-07-16T02:53:14;3.60;;;0.80;;
5939;SDS011;2995;-31.998;115.906;2023-07-16T02:55:45;3.17;;;1.20;;
5939;SDS011;2995;-31.998;115.906;2023-07-16T02:58:17;1.10;;;0.80;;
5939;SDS011;2995;-31.998;115.906;2023-07-16T03:00:51;4.50;;;0.97;;
5939;SDS011;2995;-31.998;115.906;2023-07-16T03:03:22;2.33;;;0.90;;
5939;SDS011;2995;-31.998;115.906;2023-07-16T03:05:53;1.63;;;0.60;;
5939;SDS011;2995;-31.998;115.906;2023-07-16T03:08:24;1.60;;;0.80;;
5939;SDS011;2995;-31.998;115.906;2023-07-16T03:10:56;1.50;;;0.90;;
5939;SDS011;2995;-31.998;115.906;2023-07-16T03:13:27;2.70;;;1.00;;
5939;SDS011;2995;-31.998;115.906;2023-07-16T03:16:01;2.30;;;0.97;;
5939;SDS011;2995;-31.998;115.906;2023-07-16T03:18:32;2.63;;;0.90;;
5939;SDS011;2995;-31.998;115.906;2023-07-16T03:21:03;4.17;;;0.93;;
5939;SDS011;2995;-31.998;115.906;2023-07-16T03:23:34;2.67;;;0.80;;
5939;SDS011;2995;-31.998;115.906;2023-07-16T03:26:06;2.00;;;0.90;;
5939;SDS011;2995;-31.998;115.906;2023-07-16T03:28:37;3.67;;;0.97;;
5939;SDS011;2995;-31.998;115.906;2023-07-16T03:31:10;1.93;;;1.00;;
5939;SDS011;2995;-31.998;115.906;2023-07-16T03:33:42;2.40;;;0.97;;
5939;SDS011;2995;-31.998;115.906;2023-07-16T03:36:13;2.33;;;0.70;;
5939;SDS011;2995;-31.998;115.906;2023-07-16T03:38:45;1.43;;;0.90;;
5939;SDS011;2995;-31.998;115.906;2023-07-16T03:41:16;7.03;;;0.70;;
5939;SDS011;2995;-31.998;115.906;2023-07-16T03:43:47;1.63;;;0.90;;
5939;SDS011;2995;-31.998;115.906;2023-07-16T03:46:20;2.30;;;1.00;;
5939;SDS011;2995;-31.998;115.906;2023-07-16T03:48:52;2.00;;;0.97;;
5939;SDS011;2995;-31.998;115.906;2023-07-16T03:51:24;3.20;;;1.00;;
5939;SDS011;2995;-31.998;115.906;2023-07-16T03:53:55;2.63;;;1.00;;
5939;SDS011;2995;-31.998;115.906;2023-07-16T03:56:27;4.30;;;0.80;;
5939;SDS011;2995;-31.998;115.906;2023-07-16T03:58:58;1.60;;;0.70;;
5939;SDS011;2995;-31.998;115.906;2023-07-16T04:01:32;1.00;;;0.70;;
5939;SDS011;2995;-31.998;115.906;2023-07-16T04:04:03;1.93;;;0.70;;
5939;SDS011;2995;-31.998;115.906;2023-07-16T04:06:35;2.57;;;0.80;;
5939;SDS011;2995;-31.998;115.906;2023-07-16T04:09:06;1.80;;;0.80;;
5939;SDS011;2995;-31.998;115.906;2023-07-16T04:11:38;2.87;;;0.80;;
5939;SDS011;2995;-31.998;115.906;2023-07-16T04:14:09;3.03;;;1.00;;
5939;SDS011;2995;-31.998;115.906;2023-07-16T04:16:42;47.87;;;5.80;;
5939;SDS011;2995;-31.998;115.906;2023-07-16T04:19:13;2.93;;;0.87;;
5939;SDS011;2995;-31.998;115.906;2023-07-16T04:21:45;2.93;;;0.93;;
5939;SDS011;2995;-31.998;115.906;2023-07-16T04:24:16;2.27;;;0.83;;
5939;SDS011;2995;-31.998;115.906;2023-07-16T04:26:48;3.60;;;0.90;;
5939;SDS011;2995;-31.998;115.906;2023-07-16T04:29:19;1.90;;;0.90;;
5939;SDS011;2995;-31.998;115.906;2023-07-16T04:31:52;1.23;;;0.70;;
5939;SDS011;2995;-31.998;115.906;2023-07-16T04:34:23;1.70;;;0.90;;
5939;SDS011;2995;-31.998;115.906;2023-07-16T04:36:55;2.07;;;0.97;;
5939;SDS011;2995;-31.998;115.906;2023-07-16T04:39:26;3.60;;;0.93;;
5939;SDS011;2995;-31.998;115.906;2023-07-16T04:41:57;2.23;;;0.90;;
5939;SDS011;2995;-31.998;115.906;2023-07-16T04:44:28;2.50;;;1.03;;
5939;SDS011;2995;-31.998;115.906;2023-07-16T04:47:01;3.00;;;0.97;;
5939;SDS011;2995;-31.998;115.906;2023-07-16T04:49:34;2.17;;;0.87;;
5939;SDS011;2995;-31.998;115.906;2023-07-16T04:52:05;2.40;;;0.77;;
5939;SDS011;2995;-31.998;115.906;2023-07-16T04:54:37;5.07;;;1.00;;
5939;SDS011;2995;-31.998;115.906;2023-07-16T04:57:09;2.10;;;1.10;;
5939;SDS011;2995;-31.998;115.906;2023-07-16T04:59:40;2.20;;;0.60;;
5939;SDS011;2995;-31.998;115.906;2023-07-16T05:02:13;3.87;;;0.80;;
5939;SDS011;2995;-31.998;115.906;2023-07-16T05:04:45;3.67;;;0.80;;
5939;SDS011;2995;-31.998;115.906;2023-07-16T05:07:16;1.20;;;0.70;;
5939;SDS011;2995;-31.998;115.906;2023-07-16T05:09:47;3.77;;;0.90;;
5939;SDS011;2995;-31.998;115.906;2023-07-16T05:12:19;4.50;;;1.10;;
5939;SDS011;2995;-31.998;115.906;2023-07-16T05:14:50;3.23;;;0.90;;
5939;SDS011;2995;-31.998;115.906;2023-07-16T05:17:24;2.33;;;0.93;;
5939;SDS011;2995;-31.998;115.906;2023-07-16T05:19:55;2.67;;;0.87;;
5939;SDS011;2995;-31.998;115.906;2023-07-16T05:22:26;1.30;;;0.97;;
5939;SDS011;2995;-31.998;115.906;2023-07-16T05:24:57;5.90;;;0.77;;
5939;SDS011;2995;-31.998;115.906;2023-07-16T05:27:29;1.83;;;0.87;;
5939;SDS011;2995;-31.998;115.906;2023-07-16T05:30:00;2.20;;;1.00;;
5939;SDS011;2995;-31.998;115.906;2023-07-16T05:32:33;2.50;;;0.63;;
5939;SDS011;2995;-31.998;115.906;2023-07-16T05:35:05;2.37;;;0.70;;
5939;SDS011;2995;-31.998;115.906;2023-07-16T05:37:37;3.10;;;0.93;;
5939;SDS011;2995;-31.998;115.906;2023-07-16T05:40:08;1.40;;;0.70;;
5939;SDS011;2995;-31.998;115.906;2023-07-16T05:42:40;1.27;;;0.80;;
5939;SDS011;2995;-31.998;115.906;2023-07-16T05:45:11;1.73;;;0.80;;
5939;SDS011;2995;-31.998;115.906;2023-07-16T05:47:47;2.50;;;0.90;;
5939;SDS011;2995;-31.998;115.906;2023-07-16T05:50:18;1.40;;;0.63;;
5939;SDS011;2995;-31.998;115.906;2023-07-16T05:52:49;1.27;;;0.80;;
5939;SDS011;2995;-31.998;115.906;2023-07-16T05:55:20;3.43;;;0.90;;
5939;SDS011;2995;-31.998;115.906;2023-07-16T05:57:52;1.93;;;0.60;;
5939;SDS011;2995;-31.998;115.906;2023-07-16T06:00:24;6.00;;;0.70;;
5939;SDS011;2995;-31.998;115.906;2023-07-16T06:02:57;3.07;;;0.73;;
5939;SDS011;2995;-31.998;115.906;2023-07-16T06:05:28;1.30;;;0.70;;
5939;SDS011;2995;-31.998;115.906;2023-07-16T06:08:00;0.97;;;0.60;;
5939;SDS011;2995;-31.998;115.906;2023-07-16T06:10:33;1.53;;;0.70;;
5939;SDS011;2995;-31.998;115.906;2023-07-16T06:13:05;2.10;;;0.60;;
5939;SDS011;2995;-31.998;115.906;2023-07-16T06:15:36;1.50;;;0.70;;
5939;SDS011;2995;-31.998;115.906;2023-07-16T06:18:09;3.30;;;0.73;;
5939;SDS011;2995;-31.998;115.906;2023-07-16T06:20:43;1.07;;;0.60;;
5939;SDS011;2995;-31.998;115.906;2023-07-16T06:23:15;1.57;;;0.70;;
5939;SDS011;2995;-31.998;115.906;2023-07-16T06:25:46;1.10;;;0.70;;
5939;SDS011;2995;-31.998;115.906;2023-07-16T06:28:17;3.20;;;0.77;;
5939;SDS011;2995;-31.998;115.906;2023-07-16T06:30:49;1.57;;;0.80;;
5939;SDS011;2995;-31.998;115.906;2023-07-16T06:33:22;1.20;;;0.70;;
5939;SDS011;2995;-31.998;115.906;2023-07-16T06:35:54;1.77;;;0.80;;
5939;SDS011;2995;-31.998;115.906;2023-07-16T06:38:25;1.97;;;1.10;;
5939;SDS011;2995;-31.998;115.906;2023-07-16T06:40:57;1.47;;;0.70;;
5939;SDS011;2995;-31.998;115.906;2023-07-16T06:43:28;1.73;;;0.80;;
5939;SDS011;2995;-31.998;115.906;2023-07-16T06:45:59;2.03;;;0.70;;
5939;SDS011;2995;-31.998;115.906;2023-07-16T06:48:32;1.83;;;0.80;;
5939;SDS011;2995;-31.998;115.906;2023-07-16T06:51:03;1.77;;;0.80;;
5939;SDS011;2995;-31.998;115.906;2023-07-16T06:53:35;1.10;;;0.70;;
5939;SDS011;2995;-31.998;115.906;2023-07-16T06:56:06;2.97;;;0.77;;
5939;SDS011;2995;-31.998;115.906;2023-07-16T06:58:37;1.10;;;0.70;;
5939;SDS011;2995;-31.998;115.906;2023-07-16T07:01:08;7.93;;;1.30;;
5939;SDS011;2995;-31.998;115.906;2023-07-16T07:03:42;1.27;;;0.80;;
5939;SDS011;2995;-31.998;115.906;2023-07-16T07:06:13;1.40;;;0.90;;
5939;SDS011;2995;-31.998;115.906;2023-07-16T07:08:45;1.13;;;0.60;;
5939;SDS011;2995;-31.998;115.906;2023-07-16T07:11:16;7.80;;;1.00;;
5939;SDS011;2995;-31.998;115.906;2023-07-16T07:13:47;2.43;;;0.90;;
5939;SDS011;2995;-31.998;115.906;2023-07-16T07:16:19;2.33;;;0.70;;
5939;SDS011;2995;-31.998;115.906;2023-07-16T07:18:52;3.77;;;1.00;;
5939;SDS011;2995;-31.998;115.906;2023-07-16T07:21:23;2.20;;;0.70;;
5939;SDS011;2995;-31.998;115.906;2023-07-16T07:23:54;3.70;;;0.80;;
5939;SDS011;2995;-31.998;115.906;2023-07-16T07:26:26;1.17;;;0.80;;
5939;SDS011;2995;-31.998;115.906;2023-07-16T07:28:58;0.90;;;0.70;;
5939;SDS011;2995;-31.998;115.906;2023-07-16T07:31:29;2.00;;;0.83;;
5939;SDS011;2995;-31.998;115.906;2023-07-16T07:34:02;1.97;;;0.73;;
5939;SDS011;2995;-31.998;115.906;2023-07-16T07:36:34;1.33;;;0.77;;
5939;SDS011;2995;-31.998;115.906;2023-07-16T07:39:05;2.30;;;0.80;;
5939;SDS011;2995;-31.998;115.906;2023-07-16T07:41:36;1.53;;;0.60;;
5939;SDS011;2995;-31.998;115.906;2023-07-16T07:44:08;1.20;;;0.80;;
5939;SDS011;2995;-31.998;115.906;2023-07-16T07:46:39;0.93;;;0.60;;
5939;SDS011;2995;-31.998;115.906;2023-07-16T07:49:12;1.20;;;0.60;;
5939;SDS011;2995;-31.998;115.906;2023-07-16T07:51:44;1.73;;;0.83;;
5939;SDS011;2995;-31.998;115.906;2023-07-16T07:54:16;2.17;;;0.80;;
5939;SDS011;2995;-31.998;115.906;2023-07-16T07:56:47;1.63;;;0.70;;
5939;SDS011;2995;-31.998;115.906;2023-07-16T07:59:18;0.90;;;0.70;;
5939;SDS011;2995;-31.998;115.906;2023-07-16T08:01:50;1.90;;;0.60;;
5939;SDS011;2995;-31.998;115.906;2023-07-16T08:04:23;0.93;;;0.60;;
5939;SDS011;2995;-31.998;115.906;2023-07-16T08:06:55;1.67;;;0.70;;
5939;SDS011;2995;-31.998;115.906;2023-07-16T08:09:26;3.30;;;1.50;;
5939;SDS011;2995;-31.998;115.906;2023-07-16T08:11:57;2.70;;;1.20;;
5939;SDS011;2995;-31.998;115.906;2023-07-16T08:14:29;2.80;;;1.30;;
5939;SDS011;2995;-31.998;115.906;2023-07-16T08:17:00;4.30;;;1.13;;
5939;SDS011;2995;-31.998;115.906;2023-07-16T08:19:33;2.17;;;1.20;;
5939;SDS011;2995;-31.998;115.906;2023-07-16T08:22:05;1.67;;;0.93;;
5939;SDS011;2995;-31.998;115.906;2023-07-16T08:24:36;1.50;;;1.00;;
5939;SDS011;2995;-31.998;115.906;2023-07-16T08:27:07;2.10;;;0.80;;
5939;SDS011;2995;-31.998;115.906;2023-07-16T08:29:39;1.40;;;0.90;;
5939;SDS011;2995;-31.998;115.906;2023-07-16T08:32:10;1.83;;;0.70;;
5939;SDS011;2995;-31.998;115.906;2023-07-16T08:34:44;2.30;;;0.90;;
5939;SDS011;2995;-31.998;115.906;2023-07-16T08:37:16;1.73;;;1.00;;
5939;SDS011;2995;-31.998;115.906;2023-07-16T08:39:47;1.63;;;0.80;;
5939;SDS011;2995;-31.998;115.906;2023-07-16T08:42:21;2.80;;;1.43;;
5939;SDS011;2995;-31.998;115.906;2023-07-16T08:44:55;6.00;;;1.30;;
5939;SDS011;2995;-31.998;115.906;2023-07-16T08:47:26;14.00;;;2.17;;
5939;SDS011;2995;-31.998;115.906;2023-07-16T08:50:00;1.63;;;0.80;;
5939;SDS011;2995;-31.998;115.906;2023-07-16T08:52:31;2.50;;;1.10;;
5939;SDS011;2995;-31.998;115.906;2023-07-16T08:55:03;3.10;;;1.50;;
5939;SDS011;2995;-31.998;115.906;2023-07-16T08:57:35;1.97;;;1.80;;
5939;SDS011;2995;-31.998;115.906;2023-07-16T09:00:06;3.53;;;1.50;;
5939;SDS011;2995;-31.998;115.906;2023-07-16T09:02:39;4.40;;;2.30;;
5939;SDS011;2995;-31.998;115.906;2023-07-16T09:05:13;7.00;;;2.13;;
5939;SDS011;2995;-31.998;115.906;2023-07-16T09:07:49;3.03;;;1.40;;
5939;SDS011;2995;-31.998;115.906;2023-07-16T09:10:20;4.57;;;2.00;;
5939;SDS011;2995;-31.998;115.906;2023-07-16T09:12:51;4.87;;;1.73;;
5939;SDS011;2995;-31.998;115.906;2023-07-16T09:15:23;3.90;;;1.60;;
5939;SDS011;2995;-31.998;115.906;2023-07-16T09:17:54;5.90;;;2.43;;
5939;SDS011;2995;-31.998;115.906;2023-07-16T09:20:28;3.97;;;3.63;;
5939;SDS011;2995;-31.998;115.906;2023-07-16T09:23:00;5.00;;;4.47;;
5939;SDS011;2995;-31.998;115.906;2023-07-16T09:25:31;4.00;;;3.30;;
5939;SDS011;2995;-31.998;115.906;2023-07-16T09:28:03;6.93;;;4.77;;
5939;SDS011;2995;-31.998;115.906;2023-07-16T09:30:34;5.50;;;4.90;;
5939;SDS011;2995;-31.998;115.906;2023-07-16T09:33:12;4.20;;;3.80;;
5939;SDS011;2995;-31.998;115.906;2023-07-16T09:35:47;5.20;;;3.67;;
5939;SDS011;2995;-31.998;115.906;2023-07-16T09:38:19;6.27;;;3.90;;
5939;SDS011;2995;-31.998;115.906;2023-07-16T09:40:51;5.17;;;3.53;;
5939;SDS011;2995;-31.998;115.906;2023-07-16T09:43:23;6.10;;;3.70;;
5939;SDS011;2995;-31.998;115.906;2023-07-16T09:45:54;3.80;;;2.70;;
5939;SDS011;2995;-31.998;115.906;2023-07-16T09:48:26;4.57;;;2.07;;
5939;SDS011;2995;-31.998;115.906;2023-07-16T09:50:59;2.40;;;1.37;;
5939;SDS011;2995;-31.998;115.906;2023-07-16T09:53:31;3.93;;;1.80;;
5939;SDS011;2995;-31.998;115.906;2023-07-16T09:56:04;4.17;;;1.50;;
5939;SDS011;2995;-31.998;115.906;2023-07-16T09:58:37;1.50;;;1.07;;
5939;SDS011;2995;-31.998;115.906;2023-07-16T10:01:09;1.63;;;1.27;;
5939;SDS011;2995;-31.998;115.906;2023-07-16T10:03:48;3.50;;;1.40;;
5939;SDS011;2995;-31.998;115.906;2023-07-16T10:06:21;3.17;;;1.47;;
5939;SDS011;2995;-31.998;115.906;2023-07-16T10:08:53;2.30;;;1.30;;
5939;SDS011;2995;-31.998;115.906;2023-07-16T10:11:24;2.97;;;1.67;;
5939;SDS011;2995;-31.998;115.906;2023-07-16T10:13:55;2.90;;;1.40;;
5939;SDS011;2995;-31.998;115.906;2023-07-16T10:16:27;3.30;;;1.40;;
5939;SDS011;2995;-31.998;115.906;2023-07-16T10:19:05;3.70;;;1.80;;
5939;SDS011;2995;-31.998;115.906;2023-07-16T10:21:39;4.40;;;1.60;;
5939;SDS011;2995;-31.998;115.906;2023-07-16T10:24:16;3.70;;;2.10;;
5939;SDS011;2995;-31.998;115.906;2023-07-16T10:26:48;2.27;;;2.00;;
5939;SDS011;2995;-31.998;115.906;2023-07-16T10:29:19;3.30;;;2.50;;
5939;SDS011;2995;-31.998;115.906;2023-07-16T10:31:50;2.77;;;2.10;;
5939;SDS011;2995;-31.998;115.906;2023-07-16T10:34:22;8.03;;;2.50;;
5939;SDS011;2995;-31.998;115.906;2023-07-16T10:36:56;8.80;;;3.70;;
5939;SDS011;2995;-31.998;115.906;2023-07-16T10:39:27;6.13;;;4.00;;
5939;SDS011;2995;-31.998;115.906;2023-07-16T10:41:58;5.77;;;3.60;;
5939;SDS011;2995;-31.998;115.906;2023-07-16T10:44:31;5.53;;;4.00;;
5939;SDS011;2995;-31.998;115.906;2023-07-16T10:47:02;4.07;;;3.20;;
5939;SDS011;2995;-31.998;115.906;2023-07-16T10:49:35;5.57;;;3.43;;
5939;SDS011;2995;-31.998;115.906;2023-07-16T10:52:08;6.67;;;3.23;;
5939;SDS011;2995;-31.998;115.906;2023-07-16T10:54:40;3.73;;;3.27;;
5939;SDS011;2995;-31.998;115.906;2023-07-16T10:57:11;4.87;;;3.33;;
5939;SDS011;2995;-31.998;115.906;2023-07-16T10:59:45;6.97;;;3.67;;
5939;SDS011;2995;-31.998;115.906;2023-07-16T11:02:17;5.00;;;3.43;;
5939;SDS011;2995;-31.998;115.906;2023-07-16T11:04:50;4.97;;;3.23;;
5939;SDS011;2995;-31.998;115.906;2023-07-16T11:07:26;4.40;;;4.00;;
5939;SDS011;2995;-31.998;115.906;2023-07-16T11:09:57;4.23;;;3.10;;
5939;SDS011;2995;-31.998;115.906;2023-07-16T11:12:29;4.10;;;3.33;;
5939;SDS011;2995;-31.998;115.906;2023-07-16T11:15:00;4.60;;;3.37;;
5939;SDS011;2995;-31.998;115.906;2023-07-16T11:17:32;5.80;;;3.00;;
5939;SDS011;2995;-31.998;115.906;2023-07-16T11:20:03;5.13;;;3.23;;
5939;SDS011;2995;-31.998;115.906;2023-07-16T11:22:40;4.80;;;2.50;;
5939;SDS011;2995;-31.998;115.906;2023-07-16T11:25:12;8.60;;;3.13;;
5939;SDS011;2995;-31.998;115.906;2023-07-16T11:27:43;5.27;;;3.40;;
5939;SDS011;2995;-31.998;115.906;2023-07-16T11:30:15;4.90;;;2.70;;
5939;SDS011;2995;-31.998;115.906;2023-07-16T11:32:51;5.87;;;3.53;;
5939;SDS011;2995;-31.998;115.906;2023-07-16T11:35:22;4.67;;;4.00;;
5939;SDS011;2995;-31.998;115.906;2023-07-16T11:37:57;6.13;;;4.17;;
5939;SDS011;2995;-31.998;115.906;2023-07-16T11:40:28;15.80;;;6.20;;
5939;SDS011;2995;-31.998;115.906;2023-07-16T11:43:06;7.60;;;5.27;;
5939;SDS011;2995;-31.998;115.906;2023-07-16T11:45:38;12.13;;;7.10;;
5939;SDS011;2995;-31.998;115.906;2023-07-16T11:48:16;10.63;;;6.23;;
5939;SDS011;2995;-31.998;115.906;2023-07-16T11:50:48;22.20;;;10.00;;
5939;SDS011;2995;-31.998;115.906;2023-07-16T11:53:21;16.63;;;9.60;;
5939;SDS011;2995;-31.998;115.906;2023-07-16T11:55:52;22.80;;;16.20;;
5939;SDS011;2995;-31.998;115.906;2023-07-16T11:58:24;27.87;;;21.37;;
5939;SDS011;2995;-31.998;115.906;2023-07-16T12:00:55;27.40;;;17.80;;
5939;SDS011;2995;-31.998;115.906;2023-07-16T12:03:26;20.63;;;13.50;;
5939;SDS011;2995;-31.998;115.906;2023-07-16T12:05:58;17.13;;;12.07;;
5939;SDS011;2995;-31.998;115.906;2023-07-16T12:08:31;20.63;;;13.07;;
5939;SDS011;2995;-31.998;115.906;2023-07-16T12:11:02;19.90;;;15.03;;
5939;SDS011;2995;-31.998;115.906;2023-07-16T12:13:34;21.17;;;13.50;;
5939;SDS011;2995;-31.998;115.906;2023-07-16T12:16:05;19.43;;;12.53;;
5939;SDS011;2995;-31.998;115.906;2023-07-16T12:18:37;16.80;;;11.20;;
5939;SDS011;2995;-31.998;115.906;2023-07-16T12:21:08;15.80;;;9.60;;
5939;SDS011;2995;-31.998;115.906;2023-07-16T12:23:41;23.20;;;10.03;;
5939;SDS011;2995;-31.998;115.906;2023-07-16T12:26:13;14.53;;;9.17;;
5939;SDS011;2995;-31.998;115.906;2023-07-16T12:28:45;13.33;;;9.50;;
5939;SDS011;2995;-31.998;115.906;2023-07-16T12:31:16;17.43;;;10.17;;
5939;SDS011;2995;-31.998;115.906;2023-07-16T12:33:48;13.87;;;10.43;;
5939;SDS011;2995;-31.998;115.906;2023-07-16T12:36:19;19.60;;;13.77;;
5939;SDS011;2995;-31.998;115.906;2023-07-16T12:38:52;19.43;;;14.83;;
5939;SDS011;2995;-31.998;115.906;2023-07-16T12:41:24;25.57;;;14.00;;
5939;SDS011;2995;-31.998;115.906;2023-07-16T12:43:55;26.63;;;13.10;;
5939;SDS011;2995;-31.998;115.906;2023-07-16T12:46:26;18.60;;;13.03;;
5939;SDS011;2995;-31.998;115.906;2023-07-16T12:48:57;21.73;;;11.57;;
5939;SDS011;2995;-31.998;115.906;2023-07-16T12:51:29;15.83;;;11.10;;
5939;SDS011;2995;-31.998;115.906;2023-07-16T12:54:02;17.50;;;12.03;;
5939;SDS011;2995;-31.998;115.906;2023-07-16T12:56:34;15.30;;;10.83;;
5939;SDS011;2995;-31.998;115.906;2023-07-16T12:59:06;16.10;;;11.03;;
5939;SDS011;2995;-31.998;115.906;2023-07-16T13:01:37;12.73;;;10.07;;
5939;SDS011;2995;-31.998;115.906;2023-07-16T13:04:08;16.33;;;9.93;;
5939;SDS011;2995;-31.998;115.906;2023-07-16T13:06:39;12.80;;;9.87;;
5939;SDS011;2995;-31.998;115.906;2023-07-16T13:09:15;12.47;;;9.00;;
5939;SDS011;2995;-31.998;115.906;2023-07-16T13:11:46;9.80;;;8.60;;
5939;SDS011;2995;-31.998;115.906;2023-07-16T13:14:18;16.00;;;10.10;;
5939;SDS011;2995;-31.998;115.906;2023-07-16T13:16:49;15.20;;;10.20;;
5939;SDS011;2995;-31.998;115.906;2023-07-16T13:19:20;19.07;;;10.87;;
5939;SDS011;2995;-31.998;115.906;2023-07-16T13:21:51;19.43;;;11.90;;
5939;SDS011;2995;-31.998;115.906;2023-07-16T13:24:25;14.60;;;10.00;;
5939;SDS011;2995;-31.998;115.906;2023-07-16T13:26:56;20.07;;;11.50;;
5939;SDS011;2995;-31.998;115.906;2023-07-16T13:29:27;15.47;;;11.40;;
5939;SDS011;2995;-31.998;115.906;2023-07-16T13:31:58;18.00;;;11.10;;
5939;SDS011;2995;-31.998;115.906;2023-07-16T13:34:30;12.10;;;10.30;;
5939;SDS011;2995;-31.998;115.906;2023-07-16T13:37:01;16.83;;;10.53;;
5939;SDS011;2995;-31.998;115.906;2023-07-16T13:39:35;12.90;;;9.57;;
5939;SDS011;2995;-31.998;115.906;2023-07-16T13:42:09;12.33;;;9.70;;
5939;SDS011;2995;-31.998;115.906;2023-07-16T13:44:40;23.00;;;10.33;;
5939;SDS011;2995;-31.998;115.906;2023-07-16T13:47:12;12.33;;;9.07;;
5939;SDS011;2995;-31.998;115.906;2023-07-16T13:49:43;13.37;;;9.43;;
5939;SDS011;2995;-31.998;115.906;2023-07-16T13:52:15;15.23;;;9.43;;
5939;SDS011;2995;-31.998;115.906;2023-07-16T13:54:48;12.83;;;9.67;;
5939;SDS011;2995;-31.998;115.906;2023-07-16T13:57:20;12.30;;;9.07;;
5939;SDS011;2995;-31.998;115.906;2023-07-16T14:00:03;12.27;;;10.03;;
5939;SDS011;2995;-31.998;115.906;2023-07-16T14:02:36;15.20;;;9.70;;
5939;SDS011;2995;-31.998;115.906;2023-07-16T14:05:07;15.90;;;10.47;;
5939;SDS011;2995;-31.998;115.906;2023-07-16T14:07:38;17.20;;;9.77;;
5939;SDS011;2995;-31.998;115.906;2023-07-16T14:10:12;16.20;;;10.67;;
5939;SDS011;2995;-31.998;115.906;2023-07-16T14:12:43;17.33;;;11.70;;
5939;SDS011;2995;-31.998;115.906;2023-07-16T14:15:16;18.90;;;12.93;;
5939;SDS011;2995;-31.998;115.906;2023-07-16T14:17:47;21.20;;;12.13;;
5939;SDS011;2995;-31.998;115.906;2023-07-16T14:20:18;15.93;;;10.67;;
5939;SDS011;2995;-31.998;115.906;2023-07-16T14:22:50;23.60;;;10.40;;
5939;SDS011;2995;-31.998;115.906;2023-07-16T14:25:23;16.77;;;12.00;;
5939;SDS011;2995;-31.998;115.906;2023-07-16T14:27:54;18.00;;;13.50;;
5939;SDS011;2995;-31.998;115.906;2023-07-16T14:30:29;18.37;;;11.87;;
5939;SDS011;2995;-31.998;115.906;2023-07-16T14:33:00;17.23;;;11.00;;
5939;SDS011;2995;-31.998;115.906;2023-07-16T14:35:32;14.27;;;11.30;;
5939;SDS011;2995;-31.998;115.906;2023-07-16T14:38:04;11.93;;;9.43;;
5939;SDS011;2995;-31.998;115.906;2023-07-16T14:40:37;20.50;;;11.47;;
5939;SDS011;2995;-31.998;115.906;2023-07-16T14:43:09;13.90;;;9.63;;
5939;SDS011;2995;-31.998;115.906;2023-07-16T14:45:40;17.03;;;10.13;;
5939;SDS011;2995;-31.998;115.906;2023-07-16T14:48:11;15.20;;;10.03;;
5939;SDS011;2995;-31.998;115.906;2023-07-16T14:50:43;15.63;;;10.37;;
5939;SDS011;2995;-31.998;115.906;2023-07-16T14:53:20;16.97;;;10.20;;
5939;SDS011;2995;-31.998;115.906;2023-07-16T14:55:54;18.40;;;10.00;;
5939;SDS011;2995;-31.998;115.906;2023-07-16T14:58:25;15.43;;;10.37;;
5939;SDS011;2995;-31.998;115.906;2023-07-16T15:00:59;12.70;;;9.20;;